sensor_id;sensor_type;location;lat;lon;timestamp;temperature;humidity
3478;DHT22;37937;61.490;23.506;2023-04-30T00:01:21;3.30;99.90
3478;DHT22;37937;61.490;23.506;2023-04-30T00:03:46;3.00;99.90
3478;DHT22;37937;61.490;23.506;2023-04-30T00:06:12;3.00;99.90
3478;DHT22;37937;61.490;23.506;2023-04-30T00:08:38;2.90;99.90
3478;DHT22;37937;61.490;23.506;2023-04-30T00:11:03;3.00;99.90
3478;DHT22;37937;61.490;23.506;2023-04-30T00:13:29;3.00;99.90
3478;DHT22;37937;61.490;23.506;2023-04-30T00:15:54;3.00;99.90
3478;DHT22;37937;61.490;23.506;2023-04-30T00:18:20;3.00;99.90
3478;DHT22;37937;61.490;23.506;2023-04-30T00:20:46;3.10;99.90
3478;DHT22;37937;61.490;23.506;2023-04-30T00:23:11;3.20;99.90
3478;DHT22;37937;61.490;23.506;2023-04-30T00:25:37;3.20;99.90
3478;DHT22;37937;61.490;23.506;2023-04-30T00:28:02;3.00;99.90
3478;DHT22;37937;61.490;23.506;2023-04-30T00:30:28;3.00;99.90
3478;DHT22;37937;61.490;23.506;2023-04-30T00:32:54;2.90;99.90
3478;DHT22;37937;61.490;23.506;2023-04-30T00:35:19;3.00;99.90
3478;DHT22;37937;61.490;23.506;2023-04-30T00:37:45;3.00;99.90
3478;DHT22;37937;61.490;23.506;2023-04-30T00:40:11;2.90;99.90
3478;DHT22;37937;61.490;23.506;2023-04-30T00:42:37;2.80;99.90
3478;DHT22;37937;61.490;23.506;2023-04-30T00:45:02;2.80;99.90
3478;DHT22;37937;61.490;23.506;2023-04-30T00:47:28;2.70;99.90
3478;DHT22;37937;61.490;23.506;2023-04-30T00:49:54;2.70;99.90
3478;DHT22;37937;61.490;23.506;2023-04-30T00:52:19;2.70;99.90
3478;DHT22;37937;61.490;23.506;2023-04-30T00:54:45;2.70;99.90
3478;DHT22;37937;61.490;23.506;2023-04-30T00:57:11;2.70;99.90
3478;DHT22;37937;61.490;23.506;2023-04-30T00:59:37;2.60;99.90
3478;DHT22;37937;61.490;23.506;2023-04-30T01:02:03;2.60;99.90
3478;DHT22;37937;61.490;23.506;2023-04-30T01:04:28;2.60;99.90
3478;DHT22;37937;61.490;23.506;2023-04-30T01:06:54;2.60;99.90
3478;DHT22;37937;61.490;23.506;2023-04-30T01:09:21;2.60;99.90
3478;DHT22;37937;61.490;23.506;2023-04-30T01:14:42;2.70;99.90
3478;DHT22;37937;61.490;23.506;2023-04-30T01:19:53;2.70;99.90
3478;DHT22;37937;61.490;23.506;2023-04-30T01:27:30;2.70;99.90
3478;DHT22;37937;61.490;23.506;2023-04-30T01:29:56;2.80;99.90
3478;DHT22;37937;61.490;23.506;2023-04-30T01:32:22;2.80;99.90
3478;DHT22;37937;61.490;23.506;2023-04-30T01:40:14;2.90;99.90
3478;DHT22;37937;61.490;23.506;2023-04-30T01:47:47;2.90;99.90
3478;DHT22;37937;61.490;23.506;2023-04-30T01:53:17;3.00;99.90
3478;DHT22;37937;61.490;23.506;2023-04-30T01:55:52;3.00;99.90
3478;DHT22;37937;61.490;23.506;2023-04-30T01:58:21;2.90;99.90
3478;DHT22;37937;61.490;23.506;2023-04-30T02:00:48;2.90;99.90
3478;DHT22;37937;61.490;23.506;2023-04-30T02:03:13;2.80;99.90
3478;DHT22;37937;61.490;23.506;2023-04-30T02:05:39;2.80;99.90
3478;DHT22;37937;61.490;23.506;2023-04-30T02:08:05;2.70;99.90
3478;DHT22;37937;61.490;23.506;2023-04-30T02:10:30;2.70;99.90
3478;DHT22;37937;61.490;23.506;2023-04-30T02:12:56;2.60;99.90
3478;DHT22;37937;61.490;23.506;2023-04-30T02:15:22;2.70;99.90
3478;DHT22;37937;61.490;23.506;2023-04-30T02:17:47;2.70;99.90
3478;DHT22;37937;61.490;23.506;2023-04-30T02:20:13;2.70;99.90
3478;DHT22;37937;61.490;23.506;2023-04-30T02:22:39;2.70;99.90
3478;DHT22;37937;61.490;23.506;2023-04-30T02:25:05;2.60;99.90
3478;DHT22;37937;61.490;23.506;2023-04-30T02:27:31;2.60;99.90
3478;DHT22;37937;61.490;23.506;2023-04-30T02:29:57;2.60;99.90
3478;DHT22;37937;61.490;23.506;2023-04-30T02:32:22;2.50;99.90
3478;DHT22;37937;61.490;23.506;2023-04-30T02:34:48;2.50;99.90
3478;DHT22;37937;61.490;23.506;2023-04-30T02:37:14;2.50;99.90
3478;DHT22;37937;61.490;23.506;2023-04-30T02:39:40;2.50;99.90
3478;DHT22;37937;61.490;23.506;2023-04-30T02:42:06;2.60;99.90
3478;DHT22;37937;61.490;23.506;2023-04-30T02:44:31;2.60;99.90
3478;DHT22;37937;61.490;23.506;2023-04-30T02:46:58;2.50;99.90
3478;DHT22;37937;61.490;23.506;2023-04-30T02:49:23;2.50;99.90
3478;DHT22;37937;61.490;23.506;2023-04-30T02:51:49;2.60;99.90
3478;DHT22;37937;61.490;23.506;2023-04-30T02:54:14;2.60;99.90
3478;DHT22;37937;61.490;23.506;2023-04-30T02:56:40;2.50;99.90
3478;DHT22;37937;61.490;23.506;2023-04-30T02:59:06;2.50;99.90
3478;DHT22;37937;61.490;23.506;2023-04-30T03:01:32;2.60;99.90
3478;DHT22;37937;61.490;23.506;2023-04-30T03:03:58;2.60;99.90
3478;DHT22;37937;61.490;23.506;2023-04-30T03:06:23;2.60;99.90
3478;DHT22;37937;61.490;23.506;2023-04-30T03:08:49;2.60;99.90
3478;DHT22;37937;61.490;23.506;2023-04-30T03:11:15;2.60;99.90
3478;DHT22;37937;61.490;23.506;2023-04-30T03:13:41;2.60;99.90
3478;DHT22;37937;61.490;23.506;2023-04-30T03:16:07;2.70;99.90
3478;DHT22;37937;61.490;23.506;2023-04-30T03:18:32;2.70;99.90
3478;DHT22;37937;61.490;23.506;2023-04-30T03:20:58;2.60;99.90
3478;DHT22;37937;61.490;23.506;2023-04-30T03:23:25;2.60;99.90
3478;DHT22;37937;61.490;23.506;2023-04-30T03:25:51;2.60;99.90
3478;DHT22;37937;61.490;23.506;2023-04-30T03:28:17;2.70;99.90
3478;DHT22;37937;61.490;23.506;2023-04-30T03:30:42;2.70;99.90
3478;DHT22;37937;61.490;23.506;2023-04-30T03:33:08;2.70;99.90
3478;DHT22;37937;61.490;23.506;2023-04-30T03:35:34;2.70;99.90
3478;DHT22;37937;61.490;23.506;2023-04-30T03:37:59;2.80;99.90
3478;DHT22;37937;61.490;23.506;2023-04-30T03:40:25;2.90;99.90
3478;DHT22;37937;61.490;23.506;2023-04-30T03:42:51;3.00;99.90
3478;DHT22;37937;61.490;23.506;2023-04-30T03:45:17;3.00;99.90
3478;DHT22;37937;61.490;23.506;2023-04-30T03:47:43;2.90;99.90
3478;DHT22;37937;61.490;23.506;2023-04-30T03:50:09;2.90;99.90
3478;DHT22;37937;61.490;23.506;2023-04-30T03:52:35;3.00;99.90
3478;DHT22;37937;61.490;23.506;2023-04-30T03:55:03;3.00;99.90
3478;DHT22;37937;61.490;23.506;2023-04-30T03:57:29;3.10;99.90
3478;DHT22;37937;61.490;23.506;2023-04-30T03:59:55;3.10;99.90
3478;DHT22;37937;61.490;23.506;2023-04-30T04:02:21;3.10;99.90
3478;DHT22;37937;61.490;23.506;2023-04-30T04:04:46;3.10;99.90
3478;DHT22;37937;61.490;23.506;2023-04-30T04:07:12;3.20;99.90
3478;DHT22;37937;61.490;23.506;2023-04-30T04:09:39;3.20;99.90
3478;DHT22;37937;61.490;23.506;2023-04-30T04:12:05;3.30;99.90
3478;DHT22;37937;61.490;23.506;2023-04-30T04:14:30;3.20;99.90
3478;DHT22;37937;61.490;23.506;2023-04-30T04:16:56;3.20;99.90
3478;DHT22;37937;61.490;23.506;2023-04-30T04:19:25;3.40;99.90
3478;DHT22;37937;61.490;23.506;2023-04-30T04:21:50;3.40;99.90
3478;DHT22;37937;61.490;23.506;2023-04-30T04:24:16;3.40;99.90
3478;DHT22;37937;61.490;23.506;2023-04-30T04:26:42;3.40;99.90
3478;DHT22;37937;61.490;23.506;2023-04-30T04:29:08;3.50;99.90
3478;DHT22;37937;61.490;23.506;2023-04-30T04:31:33;3.50;99.90
3478;DHT22;37937;61.490;23.506;2023-04-30T04:34:00;3.50;99.90
3478;DHT22;37937;61.490;23.506;2023-04-30T04:36:26;3.60;99.90
3478;DHT22;37937;61.490;23.506;2023-04-30T04:38:58;3.60;99.90
3478;DHT22;37937;61.490;23.506;2023-04-30T04:41:27;3.60;99.90
3478;DHT22;37937;61.490;23.506;2023-04-30T04:43:53;3.70;99.90
3478;DHT22;37937;61.490;23.506;2023-04-30T04:46:19;3.70;99.90
3478;DHT22;37937;61.490;23.506;2023-04-30T04:48:45;3.70;99.90
3478;DHT22;37937;61.490;23.506;2023-04-30T04:51:11;3.80;99.90
3478;DHT22;37937;61.490;23.506;2023-04-30T04:53:37;3.80;99.90
3478;DHT22;37937;61.490;23.506;2023-04-30T04:56:03;3.80;99.90
3478;DHT22;37937;61.490;23.506;2023-04-30T04:58:28;3.90;99.90
3478;DHT22;37937;61.490;23.506;2023-04-30T05:00:54;3.90;99.90
3478;DHT22;37937;61.490;23.506;2023-04-30T05:03:21;3.90;99.90
3478;DHT22;37937;61.490;23.506;2023-04-30T05:05:47;3.90;99.90
3478;DHT22;37937;61.490;23.506;2023-04-30T05:08:12;4.00;99.90
3478;DHT22;37937;61.490;23.506;2023-04-30T05:10:38;4.00;99.90
3478;DHT22;37937;61.490;23.506;2023-04-30T05:13:04;4.10;99.90
3478;DHT22;37937;61.490;23.506;2023-04-30T05:15:29;4.20;99.90
3478;DHT22;37937;61.490;23.506;2023-04-30T05:17:55;4.10;99.90
3478;DHT22;37937;61.490;23.506;2023-04-30T05:20:21;4.10;99.90
3478;DHT22;37937;61.490;23.506;2023-04-30T05:22:46;4.20;99.90
3478;DHT22;37937;61.490;23.506;2023-04-30T05:25:12;4.20;99.90
3478;DHT22;37937;61.490;23.506;2023-04-30T05:27:37;4.20;99.90
3478;DHT22;37937;61.490;23.506;2023-04-30T05:30:03;4.10;99.90
3478;DHT22;37937;61.490;23.506;2023-04-30T05:32:29;4.20;99.90
3478;DHT22;37937;61.490;23.506;2023-04-30T05:34:55;4.20;99.90
3478;DHT22;37937;61.490;23.506;2023-04-30T05:37:20;4.30;99.90
3478;DHT22;37937;61.490;23.506;2023-04-30T05:39:47;4.40;99.90
3478;DHT22;37937;61.490;23.506;2023-04-30T05:42:13;4.50;99.90
3478;DHT22;37937;61.490;23.506;2023-04-30T05:44:42;4.70;99.90
3478;DHT22;37937;61.490;23.506;2023-04-30T05:47:07;4.70;99.90
3478;DHT22;37937;61.490;23.506;2023-04-30T05:49:33;4.90;99.90
3478;DHT22;37937;61.490;23.506;2023-04-30T05:51:58;5.00;99.90
3478;DHT22;37937;61.490;23.506;2023-04-30T05:54:25;5.30;99.90
3478;DHT22;37937;61.490;23.506;2023-04-30T05:56:51;5.40;99.90
3478;DHT22;37937;61.490;23.506;2023-04-30T05:59:17;5.30;99.90
3478;DHT22;37937;61.490;23.506;2023-04-30T06:01:42;5.50;99.90
3478;DHT22;37937;61.490;23.506;2023-04-30T06:04:08;5.30;99.90
3478;DHT22;37937;61.490;23.506;2023-04-30T06:06:34;5.40;99.90
3478;DHT22;37937;61.490;23.506;2023-04-30T06:09:00;5.50;99.90
3478;DHT22;37937;61.490;23.506;2023-04-30T06:11:25;5.60;99.90
3478;DHT22;37937;61.490;23.506;2023-04-30T06:13:51;5.70;99.90
3478;DHT22;37937;61.490;23.506;2023-04-30T06:16:17;5.70;99.90
3478;DHT22;37937;61.490;23.506;2023-04-30T06:18:42;6.10;99.90
3478;DHT22;37937;61.490;23.506;2023-04-30T06:21:09;6.40;99.90
3478;DHT22;37937;61.490;23.506;2023-04-30T06:23:34;7.30;99.90
3478;DHT22;37937;61.490;23.506;2023-04-30T06:26:00;7.70;99.90
3478;DHT22;37937;61.490;23.506;2023-04-30T06:28:26;7.30;99.90
3478;DHT22;37937;61.490;23.506;2023-04-30T06:30:51;7.50;99.90
3478;DHT22;37937;61.490;23.506;2023-04-30T06:33:18;7.10;99.90
3478;DHT22;37937;61.490;23.506;2023-04-30T06:35:44;7.00;99.90
3478;DHT22;37937;61.490;23.506;2023-04-30T06:38:10;6.80;99.90
3478;DHT22;37937;61.490;23.506;2023-04-30T06:40:35;7.20;99.90
3478;DHT22;37937;61.490;23.506;2023-04-30T06:43:01;6.90;99.90
3478;DHT22;37937;61.490;23.506;2023-04-30T06:45:27;6.70;99.90
3478;DHT22;37937;61.490;23.506;2023-04-30T06:47:53;7.00;99.90
3478;DHT22;37937;61.490;23.506;2023-04-30T06:50:19;7.40;99.90
3478;DHT22;37937;61.490;23.506;2023-04-30T06:52:46;7.40;99.90
3478;DHT22;37937;61.490;23.506;2023-04-30T06:55:11;7.20;99.90
3478;DHT22;37937;61.490;23.506;2023-04-30T06:57:37;7.30;99.90
3478;DHT22;37937;61.490;23.506;2023-04-30T07:00:04;7.30;99.90
3478;DHT22;37937;61.490;23.506;2023-04-30T07:02:30;7.20;99.90
3478;DHT22;37937;61.490;23.506;2023-04-30T07:04:56;7.20;99.90
3478;DHT22;37937;61.490;23.506;2023-04-30T07:07:22;7.10;99.90
3478;DHT22;37937;61.490;23.506;2023-04-30T07:09:47;7.00;99.90
3478;DHT22;37937;61.490;23.506;2023-04-30T07:12:13;6.80;99.90
3478;DHT22;37937;61.490;23.506;2023-04-30T07:14:39;5.40;99.90
3478;DHT22;37937;61.490;23.506;2023-04-30T07:17:04;5.20;99.90
3478;DHT22;37937;61.490;23.506;2023-04-30T07:19:30;5.20;99.90
3478;DHT22;37937;61.490;23.506;2023-04-30T07:21:56;4.90;99.90
3478;DHT22;37937;61.490;23.506;2023-04-30T07:24:22;4.60;99.90
3478;DHT22;37937;61.490;23.506;2023-04-30T07:26:48;4.90;99.90
3478;DHT22;37937;61.490;23.506;2023-04-30T07:29:14;4.90;99.90
3478;DHT22;37937;61.490;23.506;2023-04-30T07:31:39;4.50;99.90
3478;DHT22;37937;61.490;23.506;2023-04-30T07:34:05;4.60;99.90
3478;DHT22;37937;61.490;23.506;2023-04-30T07:36:30;4.60;99.90
3478;DHT22;37937;61.490;23.506;2023-04-30T07:38:56;4.80;99.90
3478;DHT22;37937;61.490;23.506;2023-04-30T07:41:23;4.70;99.90
3478;DHT22;37937;61.490;23.506;2023-04-30T07:43:49;4.70;99.90
3478;DHT22;37937;61.490;23.506;2023-04-30T07:46:14;4.80;99.90
3478;DHT22;37937;61.490;23.506;2023-04-30T07:48:40;4.90;99.90
3478;DHT22;37937;61.490;23.506;2023-04-30T07:51:05;5.00;99.90
3478;DHT22;37937;61.490;23.506;2023-04-30T07:53:31;5.10;99.90
3478;DHT22;37937;61.490;23.506;2023-04-30T07:55:57;5.10;99.90
3478;DHT22;37937;61.490;23.506;2023-04-30T07:58:22;5.20;99.90
3478;DHT22;37937;61.490;23.506;2023-04-30T08:00:48;5.40;99.90
3478;DHT22;37937;61.490;23.506;2023-04-30T08:03:14;5.60;99.90
3478;DHT22;37937;61.490;23.506;2023-04-30T08:05:40;5.90;99.90
3478;DHT22;37937;61.490;23.506;2023-04-30T08:08:06;6.00;99.90
3478;DHT22;37937;61.490;23.506;2023-04-30T08:10:31;5.80;99.90
3478;DHT22;37937;61.490;23.506;2023-04-30T08:12:57;5.80;99.90
3478;DHT22;37937;61.490;23.506;2023-04-30T08:15:23;5.80;99.90
3478;DHT22;37937;61.490;23.506;2023-04-30T08:17:49;6.40;99.90
3478;DHT22;37937;61.490;23.506;2023-04-30T08:20:15;6.60;99.90
3478;DHT22;37937;61.490;23.506;2023-04-30T08:22:41;6.20;99.90
3478;DHT22;37937;61.490;23.506;2023-04-30T08:25:09;6.30;99.90
3478;DHT22;37937;61.490;23.506;2023-04-30T08:27:35;6.40;99.90
3478;DHT22;37937;61.490;23.506;2023-04-30T08:30:00;6.50;99.90
3478;DHT22;37937;61.490;23.506;2023-04-30T08:32:26;6.80;99.90
3478;DHT22;37937;61.490;23.506;2023-04-30T08:34:52;7.10;99.90
3478;DHT22;37937;61.490;23.506;2023-04-30T08:37:18;7.40;99.90
3478;DHT22;37937;61.490;23.506;2023-04-30T08:39:44;7.00;99.90
3478;DHT22;37937;61.490;23.506;2023-04-30T08:42:10;6.70;99.90
3478;DHT22;37937;61.490;23.506;2023-04-30T08:44:38;7.10;99.90
3478;DHT22;37937;61.490;23.506;2023-04-30T08:47:06;6.90;99.90
3478;DHT22;37937;61.490;23.506;2023-04-30T08:49:33;7.40;99.90
3478;DHT22;37937;61.490;23.506;2023-04-30T08:52:01;7.70;99.90
3478;DHT22;37937;61.490;23.506;2023-04-30T08:54:27;8.20;99.90
3478;DHT22;37937;61.490;23.506;2023-04-30T08:56:54;9.00;99.90
3478;DHT22;37937;61.490;23.506;2023-04-30T08:59:20;9.70;99.90
3478;DHT22;37937;61.490;23.506;2023-04-30T09:01:46;9.70;99.90
3478;DHT22;37937;61.490;23.506;2023-04-30T09:04:12;9.60;99.90
3478;DHT22;37937;61.490;23.506;2023-04-30T09:06:37;8.50;99.90
3478;DHT22;37937;61.490;23.506;2023-04-30T09:09:13;8.50;99.90
3478;DHT22;37937;61.490;23.506;2023-04-30T09:11:39;9.20;99.90
3478;DHT22;37937;61.490;23.506;2023-04-30T09:14:05;9.10;99.90
3478;DHT22;37937;61.490;23.506;2023-04-30T09:16:44;9.00;99.90
3478;DHT22;37937;61.490;23.506;2023-04-30T09:21:47;9.30;99.90
3478;DHT22;37937;61.490;23.506;2023-04-30T09:24:13;9.20;99.90
3478;DHT22;37937;61.490;23.506;2023-04-30T09:26:39;9.30;99.90
3478;DHT22;37937;61.490;23.506;2023-04-30T09:29:05;9.80;99.90
3478;DHT22;37937;61.490;23.506;2023-04-30T09:31:37;9.90;99.90
3478;DHT22;37937;61.490;23.506;2023-04-30T09:34:03;9.90;99.90
3478;DHT22;37937;61.490;23.506;2023-04-30T09:36:29;9.60;99.90
3478;DHT22;37937;61.490;23.506;2023-04-30T09:38:56;8.80;99.90
3478;DHT22;37937;61.490;23.506;2023-04-30T09:43:47;8.60;99.90
3478;DHT22;37937;61.490;23.506;2023-04-30T09:46:13;8.20;99.90
3478;DHT22;37937;61.490;23.506;2023-04-30T09:48:42;7.40;99.90
3478;DHT22;37937;61.490;23.506;2023-04-30T09:51:08;6.80;99.90
3478;DHT22;37937;61.490;23.506;2023-04-30T09:53:37;6.90;99.90
3478;DHT22;37937;61.490;23.506;2023-04-30T09:56:06;7.30;99.90
3478;DHT22;37937;61.490;23.506;2023-04-30T09:58:36;7.70;99.90
3478;DHT22;37937;61.490;23.506;2023-04-30T10:01:05;7.60;99.90
3478;DHT22;37937;61.490;23.506;2023-04-30T10:03:32;7.70;99.90
3478;DHT22;37937;61.490;23.506;2023-04-30T10:05:58;7.40;99.90
3478;DHT22;37937;61.490;23.506;2023-04-30T10:10:52;7.40;99.90
3478;DHT22;37937;61.490;23.506;2023-04-30T10:13:20;7.00;99.90
3478;DHT22;37937;61.490;23.506;2023-04-30T10:15:50;7.10;99.90
3478;DHT22;37937;61.490;23.506;2023-04-30T10:20:41;6.80;99.90
3478;DHT22;37937;61.490;23.506;2023-04-30T10:23:08;7.30;99.90
3478;DHT22;37937;61.490;23.506;2023-04-30T10:25:33;7.40;99.90
3478;DHT22;37937;61.490;23.506;2023-04-30T10:27:59;7.70;99.90
3478;DHT22;37937;61.490;23.506;2023-04-30T10:30:25;7.70;99.90
3478;DHT22;37937;61.490;23.506;2023-04-30T10:35:25;8.20;99.90
3478;DHT22;37937;61.490;23.506;2023-04-30T10:40:34;8.20;99.90
3478;DHT22;37937;61.490;23.506;2023-04-30T10:43:00;8.50;99.90
3478;DHT22;37937;61.490;23.506;2023-04-30T10:45:35;9.00;99.90
3478;DHT22;37937;61.490;23.506;2023-04-30T10:48:02;8.70;99.90
3478;DHT22;37937;61.490;23.506;2023-04-30T10:50:28;8.70;99.90
3478;DHT22;37937;61.490;23.506;2023-04-30T10:53:04;8.20;99.90
3478;DHT22;37937;61.490;23.506;2023-04-30T10:55:30;7.10;99.90
3478;DHT22;37937;61.490;23.506;2023-04-30T10:57:58;6.80;99.90
3478;DHT22;37937;61.490;23.506;2023-04-30T11:00:25;6.80;99.90
3478;DHT22;37937;61.490;23.506;2023-04-30T11:02:54;6.40;99.90
3478;DHT22;37937;61.490;23.506;2023-04-30T11:05:20;6.50;99.90
3478;DHT22;37937;61.490;23.506;2023-04-30T11:07:50;6.50;99.90
3478;DHT22;37937;61.490;23.506;2023-04-30T11:10:19;6.60;99.90
3478;DHT22;37937;61.490;23.506;2023-04-30T11:12:52;6.60;99.90
3478;DHT22;37937;61.490;23.506;2023-04-30T11:15:25;6.40;99.90
3478;DHT22;37937;61.490;23.506;2023-04-30T11:17:51;6.50;99.90
3478;DHT22;37937;61.490;23.506;2023-04-30T11:20:22;6.30;99.90
3478;DHT22;37937;61.490;23.506;2023-04-30T11:22:47;6.30;99.90
3478;DHT22;37937;61.490;23.506;2023-04-30T11:25:38;6.50;99.90
3478;DHT22;37937;61.490;23.506;2023-04-30T11:28:03;6.70;99.90
3478;DHT22;37937;61.490;23.506;2023-04-30T11:30:30;7.00;99.90
3478;DHT22;37937;61.490;23.506;2023-04-30T11:32:58;7.00;99.90
3478;DHT22;37937;61.490;23.506;2023-04-30T11:35:24;6.80;99.90
3478;DHT22;37937;61.490;23.506;2023-04-30T11:37:49;7.00;99.90
3478;DHT22;37937;61.490;23.506;2023-04-30T11:40:19;7.20;99.90
3478;DHT22;37937;61.490;23.506;2023-04-30T11:42:44;7.20;99.90
3478;DHT22;37937;61.490;23.506;2023-04-30T11:45:15;7.20;99.90
3478;DHT22;37937;61.490;23.506;2023-04-30T11:47:46;7.40;99.90
3478;DHT22;37937;61.490;23.506;2023-04-30T11:50:15;7.00;99.90
3478;DHT22;37937;61.490;23.506;2023-04-30T11:52:41;7.00;99.90
3478;DHT22;37937;61.490;23.506;2023-04-30T11:55:13;7.30;99.90
3478;DHT22;37937;61.490;23.506;2023-04-30T11:57:40;7.10;99.90
3478;DHT22;37937;61.490;23.506;2023-04-30T12:00:13;6.90;99.90
3478;DHT22;37937;61.490;23.506;2023-04-30T12:02:40;6.70;99.90
3478;DHT22;37937;61.490;23.506;2023-04-30T12:05:16;6.80;99.90
3478;DHT22;37937;61.490;23.506;2023-04-30T12:07:54;6.70;99.90
3478;DHT22;37937;61.490;23.506;2023-04-30T12:10:20;6.60;99.90
3478;DHT22;37937;61.490;23.506;2023-04-30T12:12:46;6.70;99.90
3478;DHT22;37937;61.490;23.506;2023-04-30T12:15:13;6.70;99.90
3478;DHT22;37937;61.490;23.506;2023-04-30T12:17:38;7.00;99.90
3478;DHT22;37937;61.490;23.506;2023-04-30T12:20:05;6.70;99.90
3478;DHT22;37937;61.490;23.506;2023-04-30T12:22:30;6.80;99.90
3478;DHT22;37937;61.490;23.506;2023-04-30T12:24:57;6.70;99.90
3478;DHT22;37937;61.490;23.506;2023-04-30T12:27:23;6.80;99.90
3478;DHT22;37937;61.490;23.506;2023-04-30T12:29:49;7.10;99.90
3478;DHT22;37937;61.490;23.506;2023-04-30T12:32:21;7.10;99.90
3478;DHT22;37937;61.490;23.506;2023-04-30T12:34:47;7.10;99.90
3478;DHT22;37937;61.490;23.506;2023-04-30T12:37:16;7.10;99.90
3478;DHT22;37937;61.490;23.506;2023-04-30T12:39:41;7.20;99.90
3478;DHT22;37937;61.490;23.506;2023-04-30T12:42:07;7.20;99.90
3478;DHT22;37937;61.490;23.506;2023-04-30T12:44:40;7.10;99.90
3478;DHT22;37937;61.490;23.506;2023-04-30T12:47:06;7.20;99.90
3478;DHT22;37937;61.490;23.506;2023-04-30T12:49:34;7.00;99.90
3478;DHT22;37937;61.490;23.506;2023-04-30T12:52:09;7.20;99.90
3478;DHT22;37937;61.490;23.506;2023-04-30T12:54:36;7.10;99.90
3478;DHT22;37937;61.490;23.506;2023-04-30T12:59:28;7.00;99.90
3478;DHT22;37937;61.490;23.506;2023-04-30T13:01:54;7.00;99.90
3478;DHT22;37937;61.490;23.506;2023-04-30T13:04:20;6.90;99.90
3478;DHT22;37937;61.490;23.506;2023-04-30T13:06:46;6.90;99.90
3478;DHT22;37937;61.490;23.506;2023-04-30T13:09:12;7.20;99.90
3478;DHT22;37937;61.490;23.506;2023-04-30T13:11:37;7.30;99.90
3478;DHT22;37937;61.490;23.506;2023-04-30T13:14:03;7.40;99.90
3478;DHT22;37937;61.490;23.506;2023-04-30T13:16:29;7.10;99.90
3478;DHT22;37937;61.490;23.506;2023-04-30T13:18:55;7.20;99.90
3478;DHT22;37937;61.490;23.506;2023-04-30T13:21:21;7.20;99.90
3478;DHT22;37937;61.490;23.506;2023-04-30T13:23:46;7.20;99.90
3478;DHT22;37937;61.490;23.506;2023-04-30T13:26:12;7.20;99.90
3478;DHT22;37937;61.490;23.506;2023-04-30T13:28:38;7.40;99.90
3478;DHT22;37937;61.490;23.506;2023-04-30T13:31:04;7.40;99.90
3478;DHT22;37937;61.490;23.506;2023-04-30T13:33:29;7.30;99.90
3478;DHT22;37937;61.490;23.506;2023-04-30T13:35:55;7.40;99.90
3478;DHT22;37937;61.490;23.506;2023-04-30T13:38:21;7.30;99.90
3478;DHT22;37937;61.490;23.506;2023-04-30T13:40:47;7.20;99.90
3478;DHT22;37937;61.490;23.506;2023-04-30T13:43:12;7.10;99.90
3478;DHT22;37937;61.490;23.506;2023-04-30T13:45:38;7.20;99.90
3478;DHT22;37937;61.490;23.506;2023-04-30T13:48:03;6.80;99.90
3478;DHT22;37937;61.490;23.506;2023-04-30T13:50:29;6.70;99.90
3478;DHT22;37937;61.490;23.506;2023-04-30T13:52:55;6.60;99.90
3478;DHT22;37937;61.490;23.506;2023-04-30T13:55:23;6.30;99.90
3478;DHT22;37937;61.490;23.506;2023-04-30T13:57:49;6.30;99.90
3478;DHT22;37937;61.490;23.506;2023-04-30T14:00:15;6.40;99.90
3478;DHT22;37937;61.490;23.506;2023-04-30T14:02:41;6.60;99.90
3478;DHT22;37937;61.490;23.506;2023-04-30T14:05:07;6.80;99.90
3478;DHT22;37937;61.490;23.506;2023-04-30T14:07:32;6.60;99.90
3478;DHT22;37937;61.490;23.506;2023-04-30T14:09:58;6.70;99.90
3478;DHT22;37937;61.490;23.506;2023-04-30T14:12:24;6.60;99.90
3478;DHT22;37937;61.490;23.506;2023-04-30T14:14:50;6.20;99.90
3478;DHT22;37937;61.490;23.506;2023-04-30T14:17:15;6.10;99.90
3478;DHT22;37937;61.490;23.506;2023-04-30T14:19:41;6.10;99.90
3478;DHT22;37937;61.490;23.506;2023-04-30T14:22:06;6.10;99.90
3478;DHT22;37937;61.490;23.506;2023-04-30T14:24:32;6.30;99.90
3478;DHT22;37937;61.490;23.506;2023-04-30T14:26:58;6.40;99.90
3478;DHT22;37937;61.490;23.506;2023-04-30T14:29:25;6.40;99.90
3478;DHT22;37937;61.490;23.506;2023-04-30T14:31:51;6.40;99.90
3478;DHT22;37937;61.490;23.506;2023-04-30T14:34:16;6.40;99.90
3478;DHT22;37937;61.490;23.506;2023-04-30T14:36:42;6.50;99.90
3478;DHT22;37937;61.490;23.506;2023-04-30T14:39:08;6.60;99.90
3478;DHT22;37937;61.490;23.506;2023-04-30T14:41:34;6.60;99.90
3478;DHT22;37937;61.490;23.506;2023-04-30T14:44:00;6.30;99.90
3478;DHT22;37937;61.490;23.506;2023-04-30T14:46:26;6.40;99.90
3478;DHT22;37937;61.490;23.506;2023-04-30T14:48:51;6.30;99.90
3478;DHT22;37937;61.490;23.506;2023-04-30T14:51:18;6.20;99.90
3478;DHT22;37937;61.490;23.506;2023-04-30T14:53:44;6.10;99.90
3478;DHT22;37937;61.490;23.506;2023-04-30T14:56:09;5.80;99.90
3478;DHT22;37937;61.490;23.506;2023-04-30T14:58:35;5.70;99.90
3478;DHT22;37937;61.490;23.506;2023-04-30T15:01:01;5.50;99.90
3478;DHT22;37937;61.490;23.506;2023-04-30T15:03:26;5.40;99.90
3478;DHT22;37937;61.490;23.506;2023-04-30T15:05:52;5.50;99.90
3478;DHT22;37937;61.490;23.506;2023-04-30T15:08:18;5.30;99.90
3478;DHT22;37937;61.490;23.506;2023-04-30T15:10:43;5.30;99.90
3478;DHT22;37937;61.490;23.506;2023-04-30T15:13:09;5.40;99.90
3478;DHT22;37937;61.490;23.506;2023-04-30T15:15:35;5.40;99.90
3478;DHT22;37937;61.490;23.506;2023-04-30T15:18:01;5.20;99.90
3478;DHT22;37937;61.490;23.506;2023-04-30T15:20:28;5.20;99.90
3478;DHT22;37937;61.490;23.506;2023-04-30T15:22:53;5.20;99.90
3478;DHT22;37937;61.490;23.506;2023-04-30T15:25:20;5.10;99.90
3478;DHT22;37937;61.490;23.506;2023-04-30T15:27:46;5.30;99.90
3478;DHT22;37937;61.490;23.506;2023-04-30T15:30:12;5.30;99.90
3478;DHT22;37937;61.490;23.506;2023-04-30T15:32:37;5.40;99.90
3478;DHT22;37937;61.490;23.506;2023-04-30T15:35:04;5.50;99.90
3478;DHT22;37937;61.490;23.506;2023-04-30T15:37:30;5.50;99.90
3478;DHT22;37937;61.490;23.506;2023-04-30T15:39:56;5.60;99.90
3478;DHT22;37937;61.490;23.506;2023-04-30T15:42:21;5.60;99.90
3478;DHT22;37937;61.490;23.506;2023-04-30T15:44:47;5.50;99.90
3478;DHT22;37937;61.490;23.506;2023-04-30T15:47:12;5.60;99.90
3478;DHT22;37937;61.490;23.506;2023-04-30T15:49:38;5.50;99.90
3478;DHT22;37937;61.490;23.506;2023-04-30T15:52:04;5.50;99.90
3478;DHT22;37937;61.490;23.506;2023-04-30T15:54:30;5.50;99.90
3478;DHT22;37937;61.490;23.506;2023-04-30T15:56:55;5.60;99.90
3478;DHT22;37937;61.490;23.506;2023-04-30T15:59:22;5.60;99.90
3478;DHT22;37937;61.490;23.506;2023-04-30T16:01:48;5.50;99.90
3478;DHT22;37937;61.490;23.506;2023-04-30T16:04:14;5.50;99.90
3478;DHT22;37937;61.490;23.506;2023-04-30T16:06:40;5.40;99.90
3478;DHT22;37937;61.490;23.506;2023-04-30T16:09:05;5.40;99.90
3478;DHT22;37937;61.490;23.506;2023-04-30T16:11:33;5.40;99.90
3478;DHT22;37937;61.490;23.506;2023-04-30T16:13:59;5.40;99.90
3478;DHT22;37937;61.490;23.506;2023-04-30T16:16:25;5.50;99.90
3478;DHT22;37937;61.490;23.506;2023-04-30T16:18:51;5.40;99.90
3478;DHT22;37937;61.490;23.506;2023-04-30T16:21:17;5.30;99.90